Time;durP1;ratioP1;P1;durP2;ratioP2;P2;SDS_P1;SDS_P2;PMS_P1;PMS_P2;Temp;Humidity;BMP_temperature;BMP_pressure;BME280_temperature;BME280_humidity;BME280_pressure;Samples;Min_cycle;Max_cycle;Signal;HPM_P1;HPM_P2
2024/01/15 00:01:33;;;;;;;6.95;2.40;;;;;;;;;;5882232;28;20395;-82
2024/01/15 00:04:24;;;;;;;4.60;3.08;;;;;;;;;;5866975;28;20136;-82
2024/01/15 00:07:15;;;;;;;3.60;2.53;;;;;;;;;;5866155;28;20063;-82
2024/01/15 00:10:06;;;;;;;4.85;2.80;;;;;;;;;;5865200;28;20065;-81
2024/01/15 00:12:57;;;;;;;4.03;2.60;;;;;;;;;;5866808;28;20221;-82
2024/01/15 00:15:47;;;;;;;5.45;2.00;;;;;;;;;;5881541;28;20045;-82
2024/01/15 00:18:38;;;;;;;6.80;2.75;;;;;;;;;;5864905;28;20045;-82
2024/01/15 00:21:29;;;;;;;4.97;2.17;;;;;;;;;;5897948;28;20128;-82
2024/01/15 00:24:20;;;;;;;3.67;2.30;;;;;;;;;;5865097;28;22187;-82
2024/01/15 00:27:11;;;;;;;5.45;2.50;;;;;;;;;;5866570;28;20124;-82
2024/01/15 00:30:02;;;;;;;6.65;2.72;;;;;;;;;;5864889;28;20071;-81
2024/01/15 00:32:53;;;;;;;2.97;2.17;;;;;;;;;;5865099;28;20056;-82
2024/01/15 00:35:43;;;;;;;6.95;3.25;;;;;;;;;;5864638;28;20111;-82
2024/01/15 00:38:34;;;;;;;5.50;2.35;;;;;;;;;;5864609;28;20044;-82
2024/01/15 00:41:27;;;;;;;5.45;2.28;;;;;;;;;;5865116;28;20049;-82
2024/01/15 00:44:18;;;;;;;4.47;2.72;;;;;;;;;;5866095;28;20046;-82
2024/01/15 00:47:09;;;;;;;3.67;2.30;;;;;;;;;;5880894;28;20046;-82
2024/01/15 00:49:59;;;;;;;8.68;2.88;;;;;;;;;;5865054;28;20071;-82
2024/01/15 00:52:50;;;;;;;2.95;1.90;;;;;;;;;;5864526;28;20115;-82
2024/01/15 00:55:41;;;;;;;3.50;2.55;;;;;;;;;;5864182;28;20052;-82
2024/01/15 00:58:32;;;;;;;2.25;1.30;;;;;;;;;;5864590;28;20045;-82
2024/01/15 01:01:23;;;;;;;10.48;2.10;;;;;;;;;;5866020;28;20411;-82
2024/01/15 01:04:14;;;;;;;3.28;2.00;;;;;;;;;;5888994;28;20050;-82
2024/01/15 01:07:04;;;;;;;8.70;2.90;;;;;;;;;;5865612;28;20499;-82
2024/01/15 01:09:55;;;;;;;6.68;3.65;;;;;;;;;;5865562;28;20042;-82
2024/01/15 01:12:46;;;;;;;6.07;1.83;;;;;;;;;;5863948;28;20052;-82
2024/01/15 01:15:38;;;;;;;5.55;2.28;;;;;;;;;;5865224;28;20521;-82
2024/01/15 01:18:29;;;;;;;3.03;2.10;;;;;;;;;;5847805;28;20046;-81
2024/01/15 01:21:20;;;;;;;3.85;1.55;;;;;;;;;;5863701;28;21006;-80
2024/01/15 01:24:11;;;;;;;3.88;1.70;;;;;;;;;;5863581;28;20543;-82
2024/01/15 01:27:02;;;;;;;5.35;2.38;;;;;;;;;;5863897;28;20740;-80
2024/01/15 01:29:53;;;;;;;2.17;1.50;;;;;;;;;;5864033;28;20045;-81
2024/01/15 01:32:44;;;;;;;2.60;1.80;;;;;;;;;;5863646;28;20564;-82
2024/01/15 01:35:34;;;;;;;2.58;2.17;;;;;;;;;;5879718;28;20045;-81
2024/01/15 01:38:25;;;;;;;4.95;1.90;;;;;;;;;;5863447;28;20041;-82
2024/01/15 01:41:17;;;;;;;2.75;2.17;;;;;;;;;;5864556;28;20053;-82
2024/01/15 01:44:08;;;;;;;3.70;2.75;;;;;;;;;;5847155;28;20049;-82
2024/01/15 01:47:00;;;;;;;3.90;2.22;;;;;;;;;;5864060;28;20053;-81
2024/01/15 01:49:51;;;;;;;8.98;2.65;;;;;;;;;;5879899;28;20037;-82
2024/01/15 01:52:42;;;;;;;1.30;1.20;;;;;;;;;;5863009;28;20049;-81
2024/01/15 01:55:34;;;;;;;4.05;2.10;;;;;;;;;;5862885;28;20060;-81
2024/01/15 01:58:25;;;;;;;2.33;2.13;;;;;;;;;;5863097;28;20050;-82
2024/01/15 02:01:17;;;;;;;7.10;2.20;;;;;;;;;;5864086;28;20046;-82
2024/01/15 02:04:09;;;;;;;3.00;1.58;;;;;;;;;;5862731;28;20046;-82
2024/01/15 02:07:00;;;;;;;4.45;2.10;;;;;;;;;;5863715;28;20547;-81
2024/01/15 02:09:51;;;;;;;2.83;1.65;;;;;;;;;;5863093;28;20495;-81
2024/01/15 02:12:43;;;;;;;3.13;1.65;;;;;;;;;;5846793;28;20124;-81
2024/01/15 02:15:34;;;;;;;1.63;1.50;;;;;;;;;;5862667;28;20111;-81
2024/01/15 02:18:25;;;;;;;2.13;1.17;;;;;;;;;;5878870;28;20446;-81
2024/01/15 02:21:16;;;;;;;2.35;1.98;;;;;;;;;;5846286;28;20049;-81
2024/01/15 02:24:07;;;;;;;1.83;1.25;;;;;;;;;;5862640;28;20132;-81
2024/01/15 02:26:58;;;;;;;1.77;1.45;;;;;;;;;;5863100;28;20093;-82
2024/01/15 02:29:49;;;;;;;1.80;1.38;;;;;;;;;;5862198;28;20051;-82
2024/01/15 02:32:40;;;;;;;1.25;1.15;;;;;;;;;;5862475;28;20483;-81
2024/01/15 02:35:31;;;;;;;1.70;1.15;;;;;;;;;;5862191;28;20365;-81
2024/01/15 02:38:21;;;;;;;2.17;0.80;;;;;;;;;;5878685;28;20045;-81
2024/01/15 02:41:14;;;;;;;1.40;1.30;;;;;;;;;;5863286;28;20427;-81
2024/01/15 02:44:04;;;;;;;2.58;1.60;;;;;;;;;;5863353;28;20419;-81
2024/01/15 02:46:55;;;;;;;2.28;1.70;;;;;;;;;;5862637;28;20057;-82
2024/01/15 02:49:46;;;;;;;1.15;1.05;;;;;;;;;;5862067;28;20046;-81
2024/01/15 02:52:37;;;;;;;2.28;0.93;;;;;;;;;;5861955;28;20131;-81
2024/01/15 02:55:29;;;;;;;2.53;1.17;;;;;;;;;;5862962;28;20057;-81
2024/01/15 02:58:22;;;;;;;0.75;0.75;;;;;;;;;;5862083;28;20049;-81
2024/01/15 03:01:12;;;;;;;1.25;1.15;;;;;;;;;;5861680;28;20059;-80
2024/01/15 03:04:03;;;;;;;3.60;0.75;;;;;;;;;;5861845;28;20559;-79
2024/01/15 03:06:54;;;;;;;2.53;1.02;;;;;;;;;;5845691;28;20041;-80
2024/01/15 03:09:45;;;;;;;1.90;1.30;;;;;;;;;;5862704;28;20045;-81
2024/01/15 03:12:36;;;;;;;1.75;0.98;;;;;;;;;;5862868;28;20049;-81
2024/01/15 03:15:27;;;;;;;1.17;1.10;;;;;;;;;;5861561;28;20049;-80
2024/01/15 03:18:17;;;;;;;3.47;1.00;;;;;;;;;;5861511;28;20056;-81
2024/01/15 03:21:08;;;;;;;0.65;0.65;;;;;;;;;;5861127;28;20052;-81
2024/01/15 03:23:59;;;;;;;1.80;1.45;;;;;;;;;;5861832;28;20434;-81
2024/01/15 03:26:50;;;;;;;3.95;1.73;;;;;;;;;;5844871;28;20056;-81
2024/01/15 03:29:41;;;;;;;1.40;1.17;;;;;;;;;;5860334;28;20380;-81
2024/01/15 03:32:32;;;;;;;2.35;1.20;;;;;;;;;;5861140;28;20045;-81
2024/01/15 03:35:22;;;;;;;1.60;1.05;;;;;;;;;;5861005;28;20050;-81
2024/01/15 03:38:13;;;;;;;1.55;1.45;;;;;;;;;;5860972;28;20053;-80
2024/01/15 03:41:04;;;;;;;1.65;1.00;;;;;;;;;;5860958;28;20052;-81
2024/01/15 03:43:54;;;;;;;1.25;1.15;;;;;;;;;;5862836;28;20057;-82
2024/01/15 03:46:45;;;;;;;0.88;0.88;;;;;;;;;;5844712;28;20053;-81
2024/01/15 03:49:36;;;;;;;4.03;2.30;;;;;;;;;;5861056;28;20403;-81
2024/01/15 03:52:27;;;;;;;1.65;1.00;;;;;;;;;;5860945;28;20041;-81
2024/01/15 03:55:18;;;;;;;1.88;1.25;;;;;;;;;;5860920;28;20053;-81
2024/01/15 03:58:08;;;;;;;2.38;1.05;;;;;;;;;;5861029;28;20411;-79
2024/01/15 04:00:59;;;;;;;2.28;1.20;;;;;;;;;;5862825;28;20045;-81
2024/01/15 04:03:50;;;;;;;3.92;1.30;;;;;;;;;;5844891;28;20065;-80
2024/01/15 04:06:41;;;;;;;3.55;1.10;;;;;;;;;;5860887;28;20157;-81
2024/01/15 04:09:32;;;;;;;1.25;0.77;;;;;;;;;;5860632;28;20124;-81
2024/01/15 04:12:23;;;;;;;2.03;1.15;;;;;;;;;;5862138;28;20502;-81
2024/01/15 04:15:14;;;;;;;0.80;0.80;;;;;;;;;;5860641;28;20115;-81
2024/01/15 04:18:05;;;;;;;0.68;0.65;;;;;;;;;;5861105;28;20045;-81
2024/01/15 04:20:56;;;;;;;3.38;1.08;;;;;;;;;;5860991;28;20049;-80
2024/01/15 04:23:47;;;;;;;1.35;0.77;;;;;;;;;;5860846;28;20068;-81
2024/01/15 04:26:37;;;;;;;3.15;1.05;;;;;;;;;;5862096;28;20395;-81
2024/01/15 04:29:28;;;;;;;1.55;1.00;;;;;;;;;;5844316;28;20058;-80
2024/01/15 04:32:19;;;;;;;1.88;1.08;;;;;;;;;;5860810;28;20049;-80
2024/01/15 04:35:10;;;;;;;1.98;1.30;;;;;;;;;;5876876;28;20042;-80
2024/01/15 04:38:01;;;;;;;4.22;1.08;;;;;;;;;;5860674;28;20075;-81
2024/01/15 04:40:52;;;;;;;1.90;1.30;;;;;;;;;;5863901;28;20049;-82
2024/01/15 04:43:47;;;;;;;1.73;1.13;;;;;;;;;;5864658;28;20048;-81
2024/01/15 04:46:38;;;;;;;1.83;0.90;;;;;;;;;;5864629;28;20056;-80
2024/01/15 04:49:29;;;;;;;7.55;1.55;;;;;;;;;;5864561;28;20048;-80
2024/01/15 04:52:20;;;;;;;1.65;1.33;;;;;;;;;;5848361;28;21018;-81
2024/01/15 04:55:11;;;;;;;1.23;1.13;;;;;;;;;;5864230;28;20048;-81
2024/01/15 04:58:02;;;;;;;1.95;1.27;;;;;;;;;;5864442;28;20042;-81
2024/01/15 05:00:54;;;;;;;7.28;2.20;;;;;;;;;;5864529;28;20053;-81
2024/01/15 05:03:45;;;;;;;1.52;1.08;;;;;;;;;;5880388;28;20179;-81
2024/01/15 05:06:36;;;;;;;2.25;1.77;;;;;;;;;;5864289;28;20403;-81
2024/01/15 05:09:27;;;;;;;2.20;1.45;;;;;;;;;;5865511;28;20049;-81
2024/01/15 05:12:22;;;;;;;0.82;0.82;;;;;;;;;;5864283;28;20049;-80
2024/01/15 05:15:13;;;;;;;3.45;2.00;;;;;;;;;;5863961;28;20132;-81
2024/01/15 05:18:04;;;;;;;1.42;1.08;;;;;;;;;;5864239;28;20203;-81
2024/01/15 05:20:55;;;;;;;1.45;1.30;;;;;;;;;;5864477;28;20427;-80
2024/01/15 05:23:46;;;;;;;1.50;1.23;;;;;;;;;;5865368;28;20075;-80
2024/01/15 05:26:36;;;;;;;3.97;1.08;;;;;;;;;;5864013;28;20048;-80
2024/01/15 05:29:27;;;;;;;1.33;1.00;;;;;;;;;;5863854;28;20042;-79
2024/01/15 05:32:18;;;;;;;1.33;1.20;;;;;;;;;;5865263;28;20038;-81
2024/01/15 05:35:09;;;;;;;2.03;1.38;;;;;;;;;;5863644;28;20049;-81
2024/01/15 05:38:00;;;;;;;1.88;1.40;;;;;;;;;;5864411;28;20056;-81
2024/01/15 05:40:51;;;;;;;1.92;1.20;;;;;;;;;;5880024;28;20511;-81
2024/01/15 05:43:41;;;;;;;2.65;1.20;;;;;;;;;;5847077;28;20049;-80
2024/01/15 05:46:33;;;;;;;1.83;1.23;;;;;;;;;;5863550;28;20037;-81
2024/01/15 05:49:23;;;;;;;1.67;1.02;;;;;;;;;;5863501;28;20045;-81
2024/01/15 05:52:14;;;;;;;3.20;1.27;;;;;;;;;;5863778;28;20537;-81
2024/01/15 05:55:05;;;;;;;1.30;1.13;;;;;;;;;;5863126;28;20052;-79
2024/01/15 05:57:56;;;;;;;5.05;1.52;;;;;;;;;;5865137;28;20045;-81
2024/01/15 06:00:47;;;;;;;4.22;1.75;;;;;;;;;;5846755;28;20041;-81
2024/01/15 06:03:38;;;;;;;1.27;0.70;;;;;;;;;;5863279;28;20048;-81
2024/01/15 06:06:29;;;;;;;2.65;1.77;;;;;;;;;;5863060;28;20045;-81
2024/01/15 06:09:20;;;;;;;1.48;1.23;;;;;;;;;;5846425;28;22930;-81
2024/01/15 06:12:11;;;;;;;4.22;1.55;;;;;;;;;;5864364;28;20045;-82
2024/01/15 06:15:02;;;;;;;3.83;1.70;;;;;;;;;;5846448;28;20103;-80
2024/01/15 06:17:53;;;;;;;1.63;1.35;;;;;;;;;;5863742;28;20139;-81
2024/01/15 06:20:44;;;;;;;2.15;1.50;;;;;;;;;;5862708;28;20518;-80
2024/01/15 06:23:35;;;;;;;7.13;1.85;;;;;;;;;;5862915;28;20514;-81
2024/01/15 06:26:26;;;;;;;2.05;1.02;;;;;;;;;;5863946;28;20407;-81
2024/01/15 06:29:17;;;;;;;1.98;1.00;;;;;;;;;;5862863;28;20472;-81
2024/01/15 06:32:07;;;;;;;2.70;1.25;;;;;;;;;;5879033;28;20052;-80
2024/01/15 06:34:58;;;;;;;1.13;0.93;;;;;;;;;;5862998;28;20060;-81
2024/01/15 06:37:49;;;;;;;3.92;2.22;;;;;;;;;;5862539;28;20095;-81
2024/01/15 06:40:45;;;;;;;0.98;0.88;;;;;;;;;;5862349;28;20046;-80
2024/01/15 06:43:36;;;;;;;3.15;2.03;;;;;;;;;;5862915;28;20606;-79
2024/01/15 06:46:26;;;;;;;1.20;1.10;;;;;;;;;;5846188;28;20047;-80
2024/01/15 06:49:17;;;;;;;3.15;1.60;;;;;;;;;;5845458;28;20053;-80
2024/01/15 06:52:08;;;;;;;2.15;1.52;;;;;;;;;;5862687;28;20071;-80
2024/01/15 06:54:59;;;;;;;4.72;2.38;;;;;;;;;;5863715;28;20046;-81
2024/01/15 06:57:50;;;;;;;2.78;0.90;;;;;;;;;;5862183;28;20056;-80
2024/01/15 07:00:41;;;;;;;3.53;2.65;;;;;;;;;;5862122;28;20045;-81
2024/01/15 07:03:32;;;;;;;4.72;2.38;;;;;;;;;;5861807;28;20061;-81
2024/01/15 07:06:23;;;;;;;8.15;3.38;;;;;;;;;;5863102;28;20037;-81
2024/01/15 07:09:14;;;;;;;2.45;2.05;;;;;;;;;;5861792;28;20046;-81
2024/01/15 07:12:05;;;;;;;5.40;3.53;;;;;;;;;;5863208;28;20045;-81
2024/01/15 07:14:59;;;;;;;3.58;2.33;;;;;;;;;;5862186;28;20041;-80
2024/01/15 07:17:49;;;;;;;6.15;2.33;;;;;;;;;;5862151;28;20068;-80
2024/01/15 07:20:40;;;;;;;4.32;2.38;;;;;;;;;;5861961;28;20041;-80
2024/01/15 07:23:31;;;;;;;3.95;2.42;;;;;;;;;;5863106;28;20049;-81
2024/01/15 07:26:22;;;;;;;2.95;1.83;;;;;;;;;;5861818;28;20547;-81
2024/01/15 07:29:13;;;;;;;5.28;1.77;;;;;;;;;;5861748;28;20077;-80
2024/01/15 07:32:05;;;;;;;3.15;1.52;;;;;;;;;;5861561;28;20045;-81
2024/01/15 07:34:55;;;;;;;5.40;1.70;;;;;;;;;;5862091;28;20337;-81
2024/01/15 07:37:46;;;;;;;9.75;2.33;;;;;;;;;;5861735;28;20071;-81
2024/01/15 07:40:37;;;;;;;2.10;1.77;;;;;;;;;;5861493;28;20049;-81
2024/01/15 07:43:28;;;;;;;5.32;2.63;;;;;;;;;;5861726;28;20049;-80
2024/01/15 07:46:19;;;;;;;3.28;2.80;;;;;;;;;;5861299;28;20053;-81
2024/01/15 07:49:10;;;;;;;6.85;2.42;;;;;;;;;;5863013;28;20414;-81
2024/01/15 07:52:00;;;;;;;3.22;2.20;;;;;;;;;;5844885;28;20045;-80
2024/01/15 07:54:51;;;;;;;2.83;1.98;;;;;;;;;;5845465;28;20482;-81
2024/01/15 07:57:42;;;;;;;6.53;2.70;;;;;;;;;;5862496;28;20518;-81
2024/01/15 08:00:40;;;;;;;3.40;2.30;;;;;;;;;;5861094;28;20049;-81
2024/01/15 08:03:31;;;;;;;20.27;10.60;;;;;;;;;;5861098;28;20049;-80
2024/01/15 08:06:21;;;;;;;9.25;6.97;;;;;;;;;;5861263;28;20053;-81
2024/01/15 08:09:13;;;;;;;11.27;5.55;;;;;;;;;;5862548;28;20419;-81
2024/01/15 08:12:06;;;;;;;3.08;2.17;;;;;;;;;;5862383;28;20056;-81
2024/01/15 08:14:56;;;;;;;2.28;1.58;;;;;;;;;;5863390;28;20064;-81
2024/01/15 08:17:47;;;;;;;8.35;2.53;;;;;;;;;;5866180;28;20442;-80
2024/01/15 08:20:38;;;;;;;2.80;1.67;;;;;;;;;;5865553;28;20056;-81
2024/01/15 08:23:31;;;;;;;6.68;2.90;;;;;;;;;;5849477;28;20053;-81
2024/01/15 08:26:22;;;;;;;2.28;1.48;;;;;;;;;;5866663;28;20049;-81
2024/01/15 08:29:12;;;;;;;1.95;1.58;;;;;;;;;;5865264;28;20526;-81
2024/01/15 08:32:04;;;;;;;4.35;3.00;;;;;;;;;;5866423;28;20045;-81
2024/01/15 08:34:54;;;;;;;6.57;2.63;;;;;;;;;;5849111;28;20128;-81
2024/01/15 08:37:45;;;;;;;4.82;2.05;;;;;;;;;;5864616;28;20126;-81
2024/01/15 08:40:36;;;;;;;6.40;3.30;;;;;;;;;;5864757;28;20522;-81
2024/01/15 08:43:27;;;;;;;6.68;2.22;;;;;;;;;;5864560;28;20124;-81
2024/01/15 08:46:18;;;;;;;3.13;2.17;;;;;;;;;;5864447;28;20175;-81
2024/01/15 08:49:09;;;;;;;6.78;1.83;;;;;;;;;;5864705;28;20057;-81
2024/01/15 08:52:00;;;;;;;8.98;2.55;;;;;;;;;;5848702;28;20132;-82
2024/01/15 08:54:50;;;;;;;8.32;3.13;;;;;;;;;;5864400;28;20038;-82
2024/01/15 08:57:41;;;;;;;4.95;2.72;;;;;;;;;;5847741;28;20049;-81
2024/01/15 09:00:32;;;;;;;13.60;3.65;;;;;;;;;;5865243;28;20132;-81
2024/01/15 09:03:23;;;;;;;3.22;1.88;;;;;;;;;;5864568;28;20045;-81
2024/01/15 09:06:14;;;;;;;5.63;2.70;;;;;;;;;;5847497;28;20057;-81
2024/01/15 09:09:06;;;;;;;5.88;2.75;;;;;;;;;;5863987;28;20364;-81
2024/01/15 09:11:57;;;;;;;3.63;2.78;;;;;;;;;;5865926;28;20045;-81
2024/01/15 09:14:48;;;;;;;4.15;2.45;;;;;;;;;;5864284;28;20041;-81
2024/01/15 09:17:39;;;;;;;2.72;2.08;;;;;;;;;;5863789;28;20112;-82
2024/01/15 09:20:29;;;;;;;4.63;2.40;;;;;;;;;;5863576;28;20101;-81
2024/01/15 09:23:20;;;;;;;4.45;3.00;;;;;;;;;;5865096;28;20101;-81
2024/01/15 09:26:11;;;;;;;3.20;2.20;;;;;;;;;;5863831;28;20408;-81
2024/01/15 09:29:02;;;;;;;2.85;2.25;;;;;;;;;;5863708;28;20052;-81
2024/01/15 09:31:53;;;;;;;3.85;1.88;;;;;;;;;;5864014;28;20092;-81
2024/01/15 09:34:46;;;;;;;6.40;2.50;;;;;;;;;;5863553;28;20041;-81
2024/01/15 09:37:39;;;;;;;8.10;2.58;;;;;;;;;;5863347;28;20495;-81
2024/01/15 09:40:43;;;;;;;8.35;3.20;;;;;;;;;;5878992;28;20045;-81
2024/01/15 09:43:34;;;;;;;4.45;2.17;;;;;;;;;;5863508;28;20037;-81
2024/01/15 09:46:24;;;;;;;6.28;3.58;;;;;;;;;;5863462;28;20407;-80
2024/01/15 09:49:16;;;;;;;4.45;2.83;;;;;;;;;;5864533;28;20050;-80
2024/01/15 09:52:07;;;;;;;4.22;2.00;;;;;;;;;;5846902;28;20053;-80
2024/01/15 09:55:03;;;;;;;4.18;2.83;;;;;;;;;;5863143;28;20388;-81
2024/01/15 09:57:55;;;;;;;3.22;1.83;;;;;;;;;;5863743;28;20041;-82
2024/01/15 10:00:50;;;;;;;9.70;2.97;;;;;;;;;;5862812;28;20065;-82
2024/01/15 10:03:41;;;;;;;4.32;2.35;;;;;;;;;;5863260;28;20048;-82
2024/01/15 10:06:33;;;;;;;15.35;4.85;;;;;;;;;;5862812;28;20079;-81
2024/01/15 10:09:24;;;;;;;10.43;4.15;;;;;;;;;;5862878;28;20146;-81
2024/01/15 10:12:15;;;;;;;8.07;4.55;;;;;;;;;;5878989;28;20049;-80
2024/01/15 10:15:08;;;;;;;13.10;4.38;;;;;;;;;;5863843;28;20057;-81
2024/01/15 10:18:00;;;;;;;9.07;4.63;;;;;;;;;;5878710;28;20099;-81
2024/01/15 10:20:51;;;;;;;10.63;4.00;;;;;;;;;;5863036;28;20349;-80
2024/01/15 10:23:42;;;;;;;4.35;2.47;;;;;;;;;;5863968;28;20046;-81
2024/01/15 10:26:34;;;;;;;5.85;3.22;;;;;;;;;;5846174;28;20434;-82
2024/01/15 10:29:25;;;;;;;5.95;2.65;;;;;;;;;;5862329;28;20124;-82
2024/01/15 10:32:16;;;;;;;8.98;2.75;;;;;;;;;;5862509;28;20636;-81
2024/01/15 10:35:08;;;;;;;4.20;2.63;;;;;;;;;;5862208;28;20522;-82
2024/01/15 10:38:00;;;;;;;4.75;2.50;;;;;;;;;;5863528;28;20053;-82
2024/01/15 10:40:55;;;;;;;4.75;3.13;;;;;;;;;;5862587;28;20871;-82
2024/01/15 10:43:46;;;;;;;11.88;3.90;;;;;;;;;;5862325;28;20160;-80
2024/01/15 10:46:37;;;;;;;7.25;3.78;;;;;;;;;;5862236;28;20045;-81
2024/01/15 10:49:29;;;;;;;3.67;2.63;;;;;;;;;;5861951;28;20041;-81
2024/01/15 10:52:24;;;;;;;4.50;2.35;;;;;;;;;;5861961;28;20152;-83
2024/01/15 10:55:14;;;;;;;10.10;3.05;;;;;;;;;;5861715;28;20045;-82
2024/01/15 10:58:10;;;;;;;9.65;2.90;;;;;;;;;;5863082;28;20122;-82
2024/01/15 11:01:02;;;;;;;10.98;3.70;;;;;;;;;;5861820;28;20079;-81
2024/01/15 11:03:55;;;;;;;3.88;2.47;;;;;;;;;;5862485;28;20399;-81
2024/01/15 11:06:50;;;;;;;4.10;3.45;;;;;;;;;;5863007;28;20045;-82
2024/01/15 11:09:41;;;;;;;11.70;3.15;;;;;;;;;;5861786;28;20045;-83
2024/01/15 11:12:32;;;;;;;3.05;2.75;;;;;;;;;;5863074;28;20467;-82
2024/01/15 11:15:24;;;;;;;5.22;3.15;;;;;;;;;;5861532;28;20111;-81
2024/01/15 11:18:15;;;;;;;6.28;2.83;;;;;;;;;;5861662;28;20053;-83
2024/01/15 11:21:15;;;;;;;2.30;2.10;;;;;;;;;;5862886;28;20192;-82
2024/01/15 11:24:11;;;;;;;2.95;2.65;;;;;;;;;;5862982;28;20491;-81
2024/01/15 11:27:02;;;;;;;3.47;1.98;;;;;;;;;;5862338;28;20389;-82
2024/01/15 11:30:06;;;;;;;8.55;3.25;;;;;;;;;;5861644;28;20052;-82
2024/01/15 11:32:58;;;;;;;3.30;2.42;;;;;;;;;;5863288;28;20057;-81
2024/01/15 11:35:50;;;;;;;3.17;2.13;;;;;;;;;;5844604;28;20049;-81
2024/01/15 11:38:41;;;;;;;7.93;2.97;;;;;;;;;;5862105;28;20534;-81
2024/01/15 11:41:32;;;;;;;4.43;2.75;;;;;;;;;;5861118;28;20388;-83
2024/01/15 11:44:23;;;;;;;3.60;2.95;;;;;;;;;;5861736;28;20049;-81
2024/01/15 11:47:14;;;;;;;6.25;3.80;;;;;;;;;;5877809;28;20045;-82
2024/01/15 11:50:08;;;;;;;5.93;3.20;;;;;;;;;;5879285;28;20072;-82
2024/01/15 11:53:08;;;;;;;5.22;3.17;;;;;;;;;;5866872;28;20530;-82
2024/01/15 11:56:01;;;;;;;8.68;4.93;;;;;;;;;;5865806;28;20438;-80
2024/01/15 11:58:52;;;;;;;6.38;3.72;;;;;;;;;;5865450;28;20048;-81
2024/01/15 12:01:42;;;;;;;5.65;2.83;;;;;;;;;;5861543;28;20115;-81
2024/01/15 12:04:33;;;;;;;8.15;3.63;;;;;;;;;;5865259;28;20504;-82
2024/01/15 12:07:24;;;;;;;5.38;3.28;;;;;;;;;;5865632;28;20053;-82
2024/01/15 12:10:18;;;;;;;5.10;2.95;;;;;;;;;;5865854;28;20053;-81
2024/01/15 12:13:14;;;;;;;2.78;2.17;;;;;;;;;;5865790;28;20060;-82
2024/01/15 12:16:05;;;;;;;4.07;2.25;;;;;;;;;;5865324;28;20549;-80
2024/01/15 12:18:56;;;;;;;4.75;3.13;;;;;;;;;;5849876;28;20667;-81
2024/01/15 12:21:47;;;;;;;6.15;3.50;;;;;;;;;;5881885;28;20073;-81
2024/01/15 12:24:38;;;;;;;9.65;3.28;;;;;;;;;;5865489;28;20041;-81
2024/01/15 12:27:29;;;;;;;5.15;2.47;;;;;;;;;;5865620;28;20435;-81
2024/01/15 12:30:21;;;;;;;5.22;3.30;;;;;;;;;;5866116;28;20045;-83
2024/01/15 12:33:12;;;;;;;6.60;3.80;;;;;;;;;;5865104;28;20053;-82
2024/01/15 12:36:04;;;;;;;4.40;2.58;;;;;;;;;;5865446;28;20065;-81
2024/01/15 12:38:59;;;;;;;6.35;4.07;;;;;;;;;;5866995;28;20147;-81
2024/01/15 12:41:51;;;;;;;4.68;2.63;;;;;;;;;;5866200;28;20048;-82
2024/01/15 12:44:44;;;;;;;13.55;3.22;;;;;;;;;;5866289;28;20498;-81
2024/01/15 12:47:36;;;;;;;8.25;4.20;;;;;;;;;;5866331;28;20432;-82
2024/01/15 12:50:27;;;;;;;6.32;2.55;;;;;;;;;;5864678;28;20046;-81
2024/01/15 12:53:18;;;;;;;4.85;2.40;;;;;;;;;;5864437;28;20749;-81
2024/01/15 12:56:09;;;;;;;13.25;4.80;;;;;;;;;;5866207;28;20488;-81
2024/01/15 12:58:59;;;;;;;16.52;3.72;;;;;;;;;;5865200;28;20060;-82
2024/01/15 13:01:51;;;;;;;5.18;3.50;;;;;;;;;;5864067;28;20052;-81
2024/01/15 13:04:42;;;;;;;4.25;3.53;;;;;;;;;;5864359;28;20184;-82
2024/01/15 13:07:33;;;;;;;6.45;4.18;;;;;;;;;;5847636;28;20132;-82
2024/01/15 13:10:24;;;;;;;16.25;3.90;;;;;;;;;;5866056;28;20141;-80
2024/01/15 13:13:16;;;;;;;7.82;4.68;;;;;;;;;;5864434;28;20419;-81
2024/01/15 13:16:08;;;;;;;12.15;4.18;;;;;;;;;;5864178;28;20124;-80
2024/01/15 13:18:59;;;;;;;12.10;2.97;;;;;;;;;;5864949;28;20041;-81
2024/01/15 13:21:51;;;;;;;8.10;2.72;;;;;;;;;;5864146;28;20045;-81
2024/01/15 13:24:42;;;;;;;8.15;3.20;;;;;;;;;;5864283;28;20041;-82
2024/01/15 13:27:36;;;;;;;3.22;2.03;;;;;;;;;;5847971;28;20038;-80
2024/01/15 13:30:29;;;;;;;4.97;3.75;;;;;;;;;;5864146;28;20046;-82
2024/01/15 13:33:20;;;;;;;12.48;5.57;;;;;;;;;;5847913;28;20076;-80
2024/01/15 13:36:10;;;;;;;7.82;4.60;;;;;;;;;;5864694;28;20046;-82
2024/01/15 13:39:01;;;;;;;8.82;5.72;;;;;;;;;;5863908;28;20049;-81
2024/01/15 13:41:52;;;;;;;4.65;3.67;;;;;;;;;;5864241;28;20049;-81
2024/01/15 13:44:43;;;;;;;5.80;3.55;;;;;;;;;;5863692;28;20041;-81
2024/01/15 13:47:34;;;;;;;16.20;8.75;;;;;;;;;;5863509;28;20049;-80
2024/01/15 13:50:24;;;;;;;15.30;4.53;;;;;;;;;;5864867;28;20055;-81
2024/01/15 13:53:16;;;;;;;4.25;2.80;;;;;;;;;;5847258;28;20042;-81
2024/01/15 13:56:07;;;;;;;14.93;6.75;;;;;;;;;;5846884;28;20604;-81
2024/01/15 13:58:59;;;;;;;21.00;6.63;;;;;;;;;;5880225;28;20060;-81
2024/01/15 14:01:49;;;;;;;13.52;6.05;;;;;;;;;;5864370;28;20041;-81
2024/01/15 14:04:41;;;;;;;9.80;5.05;;;;;;;;;;5862772;28;20431;-80
2024/01/15 14:07:32;;;;;;;7.25;3.95;;;;;;;;;;5846736;28;20491;-82
2024/01/15 14:10:23;;;;;;;14.00;7.07;;;;;;;;;;5862893;28;20483;-80
2024/01/15 14:13:14;;;;;;;3.80;3.00;;;;;;;;;;5861998;28;20455;-81
2024/01/15 14:16:05;;;;;;;5.93;2.78;;;;;;;;;;5862710;28;20045;-80
2024/01/15 14:18:56;;;;;;;4.63;3.15;;;;;;;;;;5863260;28;20179;-81
2024/01/15 14:21:46;;;;;;;7.68;2.80;;;;;;;;;;5862878;28;20124;-81
2024/01/15 14:24:37;;;;;;;12.73;3.42;;;;;;;;;;5863946;28;20507;-79
2024/01/15 14:27:28;;;;;;;4.57;2.83;;;;;;;;;;5862509;28;20045;-80
2024/01/15 14:30:19;;;;;;;9.90;4.10;;;;;;;;;;5863587;28;20053;-81
2024/01/15 14:33:10;;;;;;;6.22;3.60;;;;;;;;;;5863906;28;20051;-81
2024/01/15 14:36:01;;;;;;;11.75;4.85;;;;;;;;;;5862455;28;20047;-80
2024/01/15 14:38:52;;;;;;;11.27;5.63;;;;;;;;;;5862836;28;20053;-79
2024/01/15 14:41:43;;;;;;;10.25;5.47;;;;;;;;;;5863341;28;20037;-81
2024/01/15 14:44:34;;;;;;;10.75;6.00;;;;;;;;;;5862149;28;20057;-80
2024/01/15 14:47:26;;;;;;;10.07;4.35;;;;;;;;;;5862135;28;20411;-81
2024/01/15 14:50:17;;;;;;;8.70;3.90;;;;;;;;;;5862251;28;20132;-81
2024/01/15 14:53:08;;;;;;;8.50;3.47;;;;;;;;;;5863179;28;20060;-80
2024/01/15 14:55:59;;;;;;;11.23;3.55;;;;;;;;;;5862820;28;20164;-81
2024/01/15 14:58:50;;;;;;;7.03;3.88;;;;;;;;;;5845921;28;20049;-80
2024/01/15 15:01:41;;;;;;;5.15;2.60;;;;;;;;;;5862229;28;20060;-80
2024/01/15 15:04:33;;;;;;;5.55;2.20;;;;;;;;;;5862033;28;20041;-80
2024/01/15 15:07:24;;;;;;;8.63;3.60;;;;;;;;;;5862983;28;20518;-80
2024/01/15 15:10:15;;;;;;;8.60;2.22;;;;;;;;;;5861999;28;20407;-81
2024/01/15 15:13:07;;;;;;;7.50;2.85;;;;;;;;;;5845439;28;20042;-80
2024/01/15 15:15:58;;;;;;;13.07;4.53;;;;;;;;;;5863417;28;20049;-81
2024/01/15 15:18:48;;;;;;;15.25;3.75;;;;;;;;;;5861859;28;20049;-79
2024/01/15 15:21:39;;;;;;;5.13;4.05;;;;;;;;;;5861653;28;20525;-81
2024/01/15 15:24:30;;;;;;;4.55;3.13;;;;;;;;;;5862556;28;20111;-79
2024/01/15 15:27:21;;;;;;;4.93;3.10;;;;;;;;;;5861208;28;20045;-81
2024/01/15 15:30:12;;;;;;;6.68;2.60;;;;;;;;;;5861370;28;20415;-80
2024/01/15 15:33:05;;;;;;;6.43;2.10;;;;;;;;;;5861222;28;20087;-80
2024/01/15 15:35:56;;;;;;;6.53;3.78;;;;;;;;;;5862866;28;20049;-81
2024/01/15 15:38:47;;;;;;;5.07;3.00;;;;;;;;;;5861155;28;20129;-80
2024/01/15 15:41:37;;;;;;;8.57;4.68;;;;;;;;;;5861323;28;20471;-79
2024/01/15 15:44:28;;;;;;;10.00;5.30;;;;;;;;;;5860870;28;20068;-80
2024/01/15 15:47:19;;;;;;;8.57;5.22;;;;;;;;;;5877583;28;20064;-81
2024/01/15 15:50:10;;;;;;;15.82;5.50;;;;;;;;;;5860821;28;20042;-79
2024/01/15 15:53:02;;;;;;;9.80;3.70;;;;;;;;;;5862089;28;20084;-80
2024/01/15 15:55:53;;;;;;;11.85;2.88;;;;;;;;;;5877793;28;20068;-81
2024/01/15 15:58:44;;;;;;;8.98;4.57;;;;;;;;;;5861098;28;20045;-81
2024/01/15 16:01:36;;;;;;;6.50;4.28;;;;;;;;;;5861119;28;20053;-79
2024/01/15 16:04:27;;;;;;;15.93;5.30;;;;;;;;;;5860893;28;20052;-81
2024/01/15 16:07:19;;;;;;;16.02;6.28;;;;;;;;;;5860768;28;20177;-80
2024/01/15 16:10:10;;;;;;;16.63;7.45;;;;;;;;;;5877128;28;20053;-80
2024/01/15 16:13:01;;;;;;;20.00;11.55;;;;;;;;;;5862175;28;20068;-80
2024/01/15 16:15:51;;;;;;;13.95;7.57;;;;;;;;;;5861305;28;20106;-81
2024/01/15 16:19:02;;;;;;;14.35;5.03;;;;;;;;;;5861745;28;20127;-80
2024/01/15 16:22:13;;;;;;;16.17;5.38;;;;;;;;;;5858791;28;20068;-80
2024/01/15 16:25:24;;;;;;;9.57;3.95;;;;;;;;;;5859057;28;20199;-80
2024/01/15 16:28:15;;;;;;;15.02;5.63;;;;;;;;;;5877069;28;20046;-80
2024/01/15 16:31:06;;;;;;;12.50;3.92;;;;;;;;;;5860444;28;20048;-80
2024/01/15 16:33:58;;;;;;;11.13;5.82;;;;;;;;;;5862554;28;20396;-80
2024/01/15 16:36:55;;;;;;;5.63;2.70;;;;;;;;;;5863597;28;20049;-79
2024/01/15 16:39:46;;;;;;;5.35;2.67;;;;;;;;;;5865155;28;20056;-80
2024/01/15 16:42:37;;;;;;;11.25;3.83;;;;;;;;;;5864694;28;20411;-81
2024/01/15 16:45:29;;;;;;;7.50;3.72;;;;;;;;;;5848582;28;20159;-80
2024/01/15 16:48:20;;;;;;;18.85;4.05;;;;;;;;;;5864824;28;20061;-80
2024/01/15 16:51:12;;;;;;;15.30;5.32;;;;;;;;;;5864470;28;20128;-80
2024/01/15 16:54:02;;;;;;;11.85;5.05;;;;;;;;;;5864486;28;20053;-80
2024/01/15 16:56:53;;;;;;;9.38;2.65;;;;;;;;;;5864932;28;20415;-80
2024/01/15 16:59:44;;;;;;;13.25;4.40;;;;;;;;;;5864590;28;20495;-81
2024/01/15 17:02:35;;;;;;;4.40;2.88;;;;;;;;;;5862882;28;20037;-80
2024/01/15 17:05:26;;;;;;;6.78;3.65;;;;;;;;;;5848281;28;20610;-81